Soleil Laural Canyon Historical Data
Daily Summary for January 13, 2018 Units:  English    Metric   Both
Daily Weekly Monthly Yearly Custom
  High: Low: Average:
Temperature: 7.1 °F -5.4 °F -0.4 °F
Dew Point: -2.8 °F -10.8 °F -7.1 °F
Humidity: 84% 62% 73%
Wind Speed: 11.1mph 0.0mph 4.7mph
Wind Gust: 16.1mph - -
Wind- - WNW
Pressure: 30.62 in 30.51 in -
Precipitation: 0.00 in    
Historical Graphs
 
 
Tabular Data for January 13, 2018
Time Temperature Dew Point Pressure Wind Wind Speed Wind Gust Humidity Rainfall Rate (Hourly) solar
00:03 -0.7 °F -7.9 °F 30.52 in North 8.7 mph 9.2 mph 71% 0.00 in 0.0 W/m2
00:10 -0.7 °F -7.9 °F 30.52 in NW 7.0 mph 7.0 mph 71% 0.00 in 0.0 W/m2
00:16 -0.9 °F -8.0 °F 30.52 in NNW 8.9 mph 11.5 mph 71% 0.00 in 0.0 W/m2
00:24 -1.0 °F -8.1 °F 30.52 in NNW 6.4 mph 8.1 mph 71% 0.00 in 0.0 W/m2
00:31 -1.1 °F -8.2 °F 30.52 in NW 11.1 mph 12.7 mph 71% 0.00 in 0.0 W/m2
00:37 -1.1 °F -8.2 °F 30.52 in NNW 8.0 mph 15.0 mph 71% 0.00 in 0.0 W/m2
00:43 -1.3 °F -8.4 °F 30.52 in NW 9.4 mph 16.1 mph 71% 0.00 in 0.0 W/m2
00:52 -1.4 °F -8.5 °F 30.52 in North 6.6 mph 8.1 mph 71% 0.00 in 0.0 W/m2
00:57 -1.5 °F -8.6 °F 30.52 in NNW 6.7 mph 8.1 mph 71% 0.00 in 0.0 W/m2
01:02 -1.7 °F -8.5 °F 30.51 in NW 7.7 mph 8.4 mph 72% 0.00 in 0.0 W/m2
01:19 -1.9 °F -8.7 °F 30.52 in NW 7.0 mph 9.6 mph 72% 0.00 in 0.0 W/m2
01:26 -2.0 °F -8.8 °F 30.52 in NNW 5.6 mph 6.9 mph 72% 0.00 in 0.0 W/m2
01:32 -2.1 °F -8.9 °F 30.52 in NW 7.5 mph 12.7 mph 72% 0.00 in 0.0 W/m2
01:39 -2.2 °F -9.0 °F 30.52 in NW 7.0 mph 9.6 mph 72% 0.00 in 0.0 W/m2
01:44 -2.3 °F -9.1 °F 30.53 in WNW 7.8 mph 7.8 mph 72% 0.00 in 0.0 W/m2
01:53 -2.3 °F -9.1 °F 30.53 in NNW 7.8 mph 9.2 mph 72% 0.00 in 0.0 W/m2
01:58 -2.4 °F -8.9 °F 30.53 in NW 9.8 mph 11.5 mph 73% 0.00 in 0.0 W/m2
02:03 -2.4 °F -9.2 °F 30.53 in NNE 4.6 mph 8.1 mph 72% 0.00 in 0.0 W/m2
02:10 -2.5 °F -9.3 °F 30.53 in NNW 5.1 mph 6.9 mph 72% 0.00 in 0.0 W/m2
02:17 -2.6 °F -9.4 °F 30.54 in NNW 4.5 mph 8.1 mph 72% 0.00 in 0.0 W/m2
02:22 -2.6 °F -9.1 °F 30.54 in NNW 5.8 mph 6.0 mph 73% 0.00 in 0.0 W/m2
02:29 -2.6 °F -9.1 °F 30.55 in NNW 6.8 mph 11.5 mph 73% 0.00 in 0.0 W/m2
02:36 -2.6 °F -9.1 °F 30.55 in NNW 4.7 mph 4.7 mph 73% 0.00 in 0.0 W/m2
02:41 -2.7 °F -9.2 °F 30.55 in NW 5.4 mph 6.0 mph 73% 0.00 in 0.0 W/m2
02:46 -2.7 °F -9.2 °F 30.55 in NNW 7.3 mph 7.3 mph 73% 0.00 in 0.0 W/m2
02:51 -2.8 °F -9.3 °F 30.55 in NW 4.2 mph 4.8 mph 73% 0.00 in 0.0 W/m2
02:59 -2.8 °F -9.3 °F 30.55 in WNW 8.2 mph 9.2 mph 73% 0.00 in 0.0 W/m2
03:05 -2.8 °F -9.3 °F 30.54 in NW 9.6 mph 10.4 mph 73% 0.00 in 0.0 W/m2
03:15 -3.0 °F -9.5 °F 30.54 in NW 4.7 mph 5.8 mph 73% 0.00 in 0.0 W/m2
03:20 -3.0 °F -9.5 °F 30.55 in NW 8.0 mph 9.6 mph 73% 0.00 in 0.0 W/m2
03:37 -3.3 °F -9.5 °F 30.54 in WNW 4.2 mph 8.4 mph 74% 0.00 in 0.0 W/m2
03:47 -3.2 °F -9.2 °F 30.54 in WNW 4.6 mph 6.9 mph 75% 0.00 in 0.0 W/m2
03:57 -3.3 °F -9.2 °F 30.54 in NW 5.1 mph 5.8 mph 75% 0.00 in 0.0 W/m2
04:07 -3.4 °F -9.3 °F 30.54 in NW 5.7 mph 8.1 mph 75% 0.00 in 0.0 W/m2
04:12 -3.5 °F -9.4 °F 30.54 in NW 7.3 mph 8.1 mph 75% 0.00 in 0.0 W/m2
04:21 -3.5 °F -9.4 °F 30.54 in NNW 6.7 mph 7.2 mph 75% 0.00 in 0.0 W/m2
04:31 -3.6 °F -9.5 °F 30.54 in NW 7.0 mph 8.1 mph 75% 0.00 in 0.0 W/m2
04:39 -3.6 °F -9.5 °F 30.54 in NNW 7.5 mph 7.5 mph 75% 0.00 in 0.0 W/m2
04:47 -3.6 °F -9.5 °F 30.54 in NNW 6.8 mph 8.1 mph 75% 0.00 in 0.0 W/m2
04:57 -3.7 °F -9.6 °F 30.54 in NW 4.0 mph 4.8 mph 75% 0.00 in 0.0 W/m2
05:02 -3.7 °F -9.6 °F 30.55 in NW 4.6 mph 9.2 mph 75% 0.00 in 0.0 W/m2
05:11 -4.0 °F -9.9 °F 30.55 in NW 5.2 mph 5.8 mph 75% 0.00 in 0.0 W/m2
05:21 -4.1 °F -9.8 °F 30.55 in NW 4.9 mph 5.8 mph 76% 0.00 in 0.0 W/m2
05:26 -4.1 °F -9.8 °F 30.56 in NNW 4.8 mph 4.8 mph 76% 0.00 in 0.0 W/m2
05:31 -4.2 °F -9.9 °F 30.56 in NNW 3.9 mph 4.6 mph 76% 0.00 in 0.0 W/m2
05:36 -4.2 °F -9.9 °F 30.55 in NW 2.2 mph 4.8 mph 76% 0.00 in 0.0 W/m2
05:44 -4.3 °F -10.0 °F 30.56 in NW 6.3 mph 8.1 mph 76% 0.00 in 0.0 W/m2
05:52 -4.3 °F -10.0 °F 30.56 in WNW 2.5 mph 4.8 mph 76% 0.00 in 0.0 W/m2
05:57 -4.4 °F -10.0 °F 30.57 in NW 2.1 mph 4.6 mph 76% 0.00 in 0.0 W/m2
06:05 -4.4 °F -10.0 °F 30.57 in NW 6.1 mph 6.1 mph 76% 0.00 in 0.0 W/m2
06:10 -4.4 °F -10.0 °F 30.57 in WNW 3.2 mph 6.0 mph 76% 0.00 in 0.0 W/m2
06:15 -4.5 °F -10.1 °F 30.57 in NW 4.2 mph 6.9 mph 76% 0.00 in 0.0 W/m2
06:20 -4.5 °F -10.1 °F 30.57 in WNW 4.5 mph 6.0 mph 76% 0.00 in 0.0 W/m2
06:27 -4.6 °F -10.2 °F 30.58 in WNW 5.3 mph 6.9 mph 76% 0.00 in 0.0 W/m2
06:32 -4.6 °F -10.2 °F 30.57 in NW 4.5 mph 6.9 mph 76% 0.00 in 0.0 W/m2
06:47 -4.8 °F -10.4 °F 30.57 in NW 6.3 mph 8.1 mph 76% 0.00 in 0.0 W/m2
06:52 -4.9 °F -10.5 °F 30.57 in NW 4.9 mph 6.0 mph 76% 0.00 in 0.0 W/m2
07:17 -5.2 °F -10.8 °F 30.58 in NW 6.0 mph 7.0 mph 76% 0.00 in 0.0 W/m2
07:22 -5.2 °F -10.6 °F 30.58 in NW 6.0 mph 7.0 mph 77% 0.00 in 0.0 W/m2
07:28 -5.2 °F -10.6 °F 30.58 in NW 5.2 mph 6.9 mph 77% 0.00 in 0.0 W/m2
07:33 -5.3 °F -10.7 °F 30.58 in NW 4.9 mph 5.8 mph 77% 0.00 in 5.0 W/m2
07:46 -5.3 °F -10.7 °F 30.58 in NW 6.5 mph 6.9 mph 77% 0.00 in 11.0 W/m2
07:56 -5.3 °F -10.7 °F 30.58 in NNW 7.1 mph 8.4 mph 77% 0.00 in 14.0 W/m2
08:02 -5.3 °F -10.7 °F 30.58 in NW 6.8 mph 6.9 mph 77% 0.00 in 16.0 W/m2
08:08 -5.2 °F -10.6 °F 30.58 in NW 6.1 mph 8.4 mph 77% 0.00 in 18.0 W/m2
08:16 -5.1 °F -10.5 °F 30.59 in NW 5.8 mph 5.8 mph 77% 0.00 in 19.0 W/m2
08:22 -5.1 °F -10.5 °F 30.59 in NNE 2.3 mph 4.6 mph 77% 0.00 in 0.0 W/m2
08:32 -5.1 °F -10.5 °F 30.59 in Calm     77% 0.00 in 0.0 W/m2
08:45 -5.1 °F -10.5 °F 30.59 in Calm     77% 0.00 in 0.0 W/m2
08:50 -5.1 °F -10.5 °F 30.59 in Calm     77% 0.00 in 0.0 W/m2
08:55 -5.1 °F -10.5 °F 30.59 in Calm     77% 0.00 in 0.0 W/m2
09:09 -5.1 °F -10.5 °F 30.60 in Calm     77% 0.00 in 0.0 W/m2
09:15 -3.8 °F -9.5 °F 30.60 in WNW 10.5 mph 15.0 mph 76% 0.00 in 227.0 W/m2
09:29 -3.2 °F -8.9 °F 30.61 in NW 8.6 mph 10.4 mph 76% 0.00 in 262.0 W/m2
09:34 -3.0 °F -9.0 °F 30.61 in WNW 6.9 mph 7.2 mph 75% 0.00 in 278.0 W/m2
09:40 -2.7 °F -8.4 °F 30.61 in WNW 6.1 mph 7.2 mph 76% 0.00 in 288.0 W/m2
09:47 -2.5 °F -8.5 °F 30.61 in NW 8.0 mph 12.0 mph 75% 0.00 in 306.0 W/m2
09:52 -2.4 °F -8.4 °F 30.62 in NNW 10.7 mph 15.0 mph 75% 0.00 in 316.0 W/m2
09:57 -2.3 °F -8.3 °F 30.62 in NW 6.8 mph 6.9 mph 75% 0.00 in 327.0 W/m2
10:17 -1.3 °F -7.3 °F 30.62 in NNW 8.0 mph 9.2 mph 75% 0.00 in 366.0 W/m2
10:25 -1.2 °F -7.5 °F 30.62 in NNW 10.1 mph 12.0 mph 74% 0.00 in 378.0 W/m2
10:34 -0.5 °F -6.8 °F 30.62 in WNW 8.4 mph 9.2 mph 74% 0.00 in 394.0 W/m2
10:47 -0.3 °F -6.6 °F 30.62 in NW 9.2 mph 9.2 mph 74% 0.00 in 410.0 W/m2
10:53 -0.3 °F -6.6 °F 30.62 in NW 7.9 mph 9.2 mph 74% 0.00 in 418.0 W/m2
10:58 0.3 °F -6.0 °F 30.62 in WNW 9.7 mph 10.4 mph 74% 0.00 in 424.0 W/m2
11:04 0.0 °F -6.6 °F 30.61 in NW 8.6 mph 9.2 mph 73% 0.00 in 429.0 W/m2
11:09 0.5 °F -5.8 °F 30.61 in NNW 8.4 mph 10.4 mph 74% 0.00 in 434.0 W/m2
11:17 0.7 °F -5.9 °F 30.61 in WNW 10.3 mph 15.0 mph 73% 0.00 in 441.0 W/m2
11:25 0.9 °F -5.7 °F 30.61 in WNW 8.2 mph 10.4 mph 73% 0.00 in 446.0 W/m2
11:32 1.4 °F -5.3 °F 30.61 in WNW 7.1 mph 7.1 mph 73% 0.00 in 452.0 W/m2
11:41 1.8 °F -5.2 °F 30.61 in NNW 7.2 mph 7.2 mph 72% 0.00 in 461.0 W/m2
11:48 1.9 °F -5.3 °F 30.60 in WNW 7.2 mph 9.2 mph 71% 0.00 in 461.0 W/m2
11:53 2.3 °F -4.7 °F 30.60 in NW 7.5 mph 8.1 mph 72% 0.00 in 464.0 W/m2
11:58 2.3 °F -5.3 °F 30.60 in WNW 6.0 mph 9.2 mph 70% 0.00 in 466.0 W/m2
12:03 2.8 °F -4.5 °F 30.60 in NW 5.0 mph 5.8 mph 71% 0.00 in 464.0 W/m2
12:12 3.5 °F -3.8 °F 30.60 in NW 6.0 mph 9.6 mph 71% 0.00 in 466.0 W/m2
12:22 3.3 °F -4.3 °F 30.59 in WNW 10.3 mph 10.3 mph 70% 0.00 in 466.0 W/m2
12:43 3.8 °F -4.1 °F 30.59 in West 7.1 mph 7.1 mph 69% 0.00 in 461.0 W/m2
12:52 4.3 °F -3.9 °F 30.58 in WNW 8.3 mph 9.2 mph 68% 0.00 in 455.0 W/m2
12:57 4.1 °F -4.1 °F 30.58 in WNW 9.3 mph 10.4 mph 68% 0.00 in 452.0 W/m2
13:02 4.4 °F -3.8 °F 30.58 in West 9.0 mph 10.4 mph 68% 0.00 in 448.0 W/m2
13:08 4.4 °F -3.8 °F 30.59 in NW 8.4 mph 8.4 mph 68% 0.00 in 443.0 W/m2
13:16 4.7 °F -3.6 °F 30.58 in WNW 8.3 mph 10.8 mph 68% 0.00 in 434.0 W/m2
13:21 4.9 °F -3.7 °F 30.58 in WNW 6.0 mph 7.2 mph 67% 0.00 in 432.0 W/m2
13:30 5.3 °F -3.0 °F 30.58 in NW 7.3 mph 8.1 mph 68% 0.00 in 418.0 W/m2
13:35 5.4 °F -3.2 °F 30.58 in NNW 7.6 mph 9.2 mph 67% 0.00 in 413.0 W/m2
13:42 5.8 °F -2.8 °F 30.58 in WNW 8.0 mph 8.4 mph 67% 0.00 in 404.0 W/m2
13:48 5.8 °F -3.1 °F 30.58 in WSW 7.4 mph 7.4 mph 66% 0.00 in 397.0 W/m2
13:53 5.6 °F -3.3 °F 30.58 in NW 8.5 mph 12.7 mph 66% 0.00 in 388.0 W/m2
13:59 5.8 °F -3.1 °F 30.58 in WNW 7.4 mph 8.1 mph 66% 0.00 in 380.0 W/m2
14:04 6.1 °F -3.2 °F 30.58 in NW 6.3 mph 8.1 mph 65% 0.00 in 373.0 W/m2
14:09 6.2 °F -3.1 °F 30.57 in NNW 7.6 mph 12.7 mph 65% 0.00 in 364.0 W/m2
14:14 6.1 °F -3.2 °F 30.57 in West 9.5 mph 10.4 mph 65% 0.00 in 355.0 W/m2
14:21 6.2 °F -3.1 °F 30.58 in NW 6.9 mph 8.4 mph 65% 0.00 in 343.0 W/m2
14:27 6.5 °F -2.8 °F 30.57 in NNW 3.7 mph 4.8 mph 65% 0.00 in 325.0 W/m2
14:33 6.7 °F -2.9 °F 30.57 in NW 4.6 mph 7.2 mph 64% 0.00 in 313.0 W/m2
14:42 6.9 °F -3.1 °F 30.57 in WNW 9.0 mph 10.4 mph 63% 0.00 in 292.0 W/m2
14:47 6.7 °F -3.2 °F 30.58 in WNW 8.4 mph 9.2 mph 63% 0.00 in 276.0 W/m2
14:55 6.9 °F -3.1 °F 30.58 in NNW 7.2 mph 7.2 mph 63% 0.00 in 255.0 W/m2
15:04 7.1 °F -2.9 °F 30.57 in NNW 8.8 mph 10.4 mph 63% 0.00 in 214.0 W/m2
15:14 6.8 °F -3.5 °F 30.58 in NW 7.4 mph 9.2 mph 62% 0.00 in 153.0 W/m2
15:22 6.8 °F -3.5 °F 30.58 in NW 6.3 mph 6.9 mph 62% 0.00 in 114.0 W/m2
15:27 6.7 °F -3.2 °F 30.58 in NW 7.3 mph 8.1 mph 63% 0.00 in 67.0 W/m2
15:52 6.6 °F -3.3 °F 30.58 in WNW 5.8 mph 5.8 mph 63% 0.00 in 46.0 W/m2
15:57 6.6 °F -3.7 °F 30.58 in NNW 5.1 mph 6.0 mph 62% 0.00 in 40.0 W/m2
16:05 6.4 °F -3.9 °F 30.58 in NW 5.5 mph 6.9 mph 62% 0.00 in 19.0 W/m2
16:10 6.3 °F -4.0 °F 30.58 in NNW 4.5 mph 8.1 mph 62% 0.00 in 19.0 W/m2
16:18 6.2 °F -4.1 °F 30.58 in NW 5.4 mph 5.8 mph 62% 0.00 in 16.0 W/m2
16:28 6.2 °F -3.7 °F 30.58 in WNW 2.4 mph 4.6 mph 63% 0.00 in 14.0 W/m2
16:45 5.7 °F -4.2 °F 30.58 in WNW 3.5 mph 4.8 mph 63% 0.00 in 0.0 W/m2
16:57 5.4 °F -4.2 °F 30.58 in WNW 3.0 mph 5.8 mph 64% 0.00 in 0.0 W/m2
17:09 5.1 °F -4.1 °F 30.59 in NNW 3.1 mph 3.1 mph 65% 0.00 in 0.0 W/m2
17:15 4.9 °F -4.3 °F 30.59 in NNW 2.8 mph 4.6 mph 65% 0.00 in 0.0 W/m2
17:23 4.7 °F -4.5 °F 30.59 in NNW 2.7 mph 4.6 mph 65% 0.00 in 0.0 W/m2
17:33 4.5 °F -4.4 °F 30.59 in WNW 1.5 mph 2.3 mph 66% 0.00 in 0.0 W/m2
17:38 4.4 °F -4.5 °F 30.59 in WNW 2.5 mph 2.5 mph 66% 0.00 in 0.0 W/m2
17:44 4.3 °F -4.6 °F 30.59 in WNW 1.9 mph 2.3 mph 66% 0.00 in 0.0 W/m2
17:49 4.1 °F -4.8 °F 30.59 in WNW 1.7 mph 2.3 mph 66% 0.00 in 0.0 W/m2
17:56 3.8 °F -4.7 °F 30.59 in WNW 2.7 mph 4.6 mph 67% 0.00 in 0.0 W/m2
18:13 3.3 °F -4.9 °F 30.59 in Calm   1.2 mph 68% 0.00 in 0.0 W/m2
18:18 3.2 °F -5.0 °F 30.59 in WNW 1.3 mph 1.3 mph 68% 0.00 in 0.0 W/m2
18:23 3.0 °F -5.2 °F 30.59 in Calm     68% 0.00 in 0.0 W/m2
18:28 2.8 °F -5.4 °F 30.60 in Calm     68% 0.00 in 0.0 W/m2
18:33 2.7 °F -5.5 °F 30.60 in Calm   1.2 mph 68% 0.00 in 0.0 W/m2
18:38 2.5 °F -5.4 °F 30.59 in WNW 1.3 mph 2.3 mph 69% 0.00 in 0.0 W/m2
18:45 2.3 °F -5.3 °F 30.59 in WNW 0.8 mph 1.2 mph 70% 0.00 in 0.0 W/m2
18:50 2.3 °F -5.3 °F 30.59 in WNW 1.4 mph 1.4 mph 70% 0.00 in 0.0 W/m2
19:03 1.9 °F -5.6 °F 30.59 in WNW 0.1 mph 1.2 mph 70% 0.00 in 0.0 W/m2
19:09 1.8 °F -5.7 °F 30.59 in WNW 1.8 mph 2.4 mph 70% 0.00 in 0.0 W/m2
19:15 1.6 °F -5.6 °F 30.60 in WNW 0.5 mph 2.3 mph 71% 0.00 in 0.0 W/m2
19:26 1.4 °F -5.5 °F 30.59 in WNW 2.1 mph 2.4 mph 72% 0.00 in 0.0 W/m2
19:33 1.3 °F -5.6 °F 30.59 in WNW 0.3 mph 1.2 mph 72% 0.00 in 0.0 W/m2
19:39 1.1 °F -5.8 °F 30.59 in WNW 1.2 mph 1.2 mph 72% 0.00 in 0.0 W/m2
19:48 0.9 °F -6.0 °F 30.59 in Calm     72% 0.00 in 0.0 W/m2
19:57 0.6 °F -6.3 °F 30.58 in Calm     72% 0.00 in 0.0 W/m2
20:04 0.2 °F -6.1 °F 30.58 in WNW 0.8 mph 1.2 mph 74% 0.00 in 0.0 W/m2
20:09 0.1 °F -6.2 °F 30.58 in WNW 0.1 mph 1.2 mph 74% 0.00 in 0.0 W/m2
20:23 -0.4 °F -6.2 °F 30.59 in WNW 1.7 mph 2.3 mph 76% 0.00 in 0.0 W/m2
20:28 -0.5 °F -6.3 °F 30.59 in WNW 0.8 mph 1.2 mph 76% 0.00 in 0.0 W/m2
20:38 -0.8 °F -6.5 °F 30.59 in Calm     76% 0.00 in 0.0 W/m2
20:43 -0.9 °F -6.6 °F 30.59 in Calm     76% 0.00 in 0.0 W/m2
21:00 -1.5 °F -6.7 °F 30.58 in Calm   1.2 mph 78% 0.00 in 0.0 W/m2
21:06 -1.6 °F -6.5 °F 30.58 in Calm     79% 0.00 in 0.0 W/m2
21:23 -1.9 °F -6.6 °F 30.58 in Calm     80% 0.00 in 0.0 W/m2
21:30 -2.1 °F -6.8 °F 30.58 in WNW 0.8 mph 1.2 mph 80% 0.00 in 0.0 W/m2
21:35 -2.2 °F -6.6 °F 30.58 in WNW 0.4 mph   81% 0.00 in 0.0 W/m2
21:40 -2.3 °F -6.7 °F 30.58 in WNW 0.4 mph 1.2 mph 81% 0.00 in 0.0 W/m2
21:45 -2.4 °F -6.8 °F 30.58 in Calm     81% 0.00 in 0.0 W/m2
21:52 -2.5 °F -6.9 °F 30.58 in Calm   1.0 mph 81% 0.00 in 0.0 W/m2
21:57 -2.6 °F -7.0 °F 30.58 in WNW 2.1 mph 2.4 mph 81% 0.00 in 0.0 W/m2
22:05 -3.0 °F -7.1 °F 30.58 in WNW 2.4 mph 2.4 mph 82% 0.00 in 0.0 W/m2
22:11 -3.1 °F -7.0 °F 30.58 in WNW 0.5 mph 1.2 mph 83% 0.00 in 0.0 W/m2
22:18 -3.3 °F -7.2 °F 30.58 in Calm   1.2 mph 83% 0.00 in 0.0 W/m2
22:23 -3.4 °F -7.3 °F 30.58 in Calm     83% 0.00 in 0.0 W/m2
22:30 -3.4 °F -7.3 °F 30.58 in Calm     83% 0.00 in 0.0 W/m2
22:35 -3.7 °F -7.6 °F 30.58 in WNW 1.3 mph 1.3 mph 83% 0.00 in 0.0 W/m2
22:42 -3.6 °F -7.2 °F 30.59 in WNW 1.0 mph 2.0 mph 84% 0.00 in 0.0 W/m2
22:48 -3.6 °F -7.5 °F 30.59 in WNW 0.9 mph 1.2 mph 83% 0.00 in 0.0 W/m2
22:53 -3.6 °F -7.5 °F 30.59 in Calm     83% 0.00 in 0.0 W/m2
23:06 -3.9 °F -7.8 °F 30.58 in Calm     83% 0.00 in 0.0 W/m2
23:22 -4.4 °F -8.3 °F 30.58 in WNW 0.5 mph 1.2 mph 83% 0.00 in 0.0 W/m2
23:28 -4.5 °F -8.4 °F 30.58 in Calm     83% 0.00 in 0.0 W/m2
23:33 -4.7 °F -8.5 °F 30.58 in Calm   1.2 mph 83% 0.00 in 0.0 W/m2
23:42 -4.9 °F -8.5 °F 30.58 in Calm     84% 0.00 in 0.0 W/m2
23:49 -5.0 °F -8.6 °F 30.57 in WNW 0.1 mph 1.2 mph 84% 0.00 in 0.0 W/m2
23:54 -5.2 °F -8.8 °F 30.57 in WNW 0.6 mph 1.2 mph 84% 0.00 in 0.0 W/m2
23:59 -5.4 °F -9.0 °F 30.57 in Calm     84% 0.00 in 0.0 W/m2
Soleil - Laurel Canyon
Compliments of Weather Underground - 2.5 mb